Time;durP1;ratioP1;P1;durP2;ratioP2;P2;SDS_P1;SDS_P2;PMS_P1;PMS_P2;Temp;Humidity;BMP_temperature;BMP_pressure;BME280_temperature;BME280_humidity;BME280_pressure;Samples;Min_cycle;Max_cycle;Signal;HPM_P1;HPM_P2
2024/01/06 00:03:00;;;;;;;17.17;9.45;;;6.30;90.50;;;;;;9179672;19;20428;-73
2024/01/06 00:06:07;;;;;;;16.95;9.10;;;6.20;90.70;;;;;;9180937;19;20015;-72
2024/01/06 00:09:18;;;;;;;14.48;8.30;;;6.20;90.50;;;;;;9178966;19;20011;-76
2024/01/06 00:12:24;;;;;;;15.95;9.07;;;6.20;90.50;;;;;;9174285;19;20030;-75
2024/01/06 00:15:32;;;;;;;14.20;8.57;;;6.10;90.40;;;;;;9179550;19;20373;-75
2024/01/06 00:18:38;;;;;;;13.57;8.35;;;6.10;90.50;;;;;;9180389;19;20047;-75
2024/01/06 00:21:45;;;;;;;14.02;8.52;;;6.10;90.50;;;;;;9180578;19;20022;-75
2024/01/06 00:24:56;;;;;;;15.50;9.23;;;6.10;90.50;;;;;;9182061;19;20010;-75
2024/01/06 00:28:03;;;;;;;21.77;9.05;;;6.10;90.50;;;;;;9179362;19;20025;-75
2024/01/06 00:31:09;;;;;;;17.48;8.93;;;6.10;90.50;;;;;;9178883;19;20634;-76
2024/01/06 00:34:17;;;;;;;13.77;8.77;;;6.00;90.50;;;;;;9182567;19;20053;-76
2024/01/06 00:37:23;;;;;;;14.30;8.13;;;6.00;90.50;;;;;;9174830;19;20640;-75
2024/01/06 00:40:34;;;;;;;13.77;8.30;;;6.00;90.50;;;;;;9176978;19;20015;-76
2024/01/06 00:43:40;;;;;;;15.77;7.63;;;6.00;90.50;;;;;;9177782;19;20010;-76
2024/01/06 00:46:48;;;;;;;16.67;8.45;;;6.00;90.50;;;;;;9179780;19;20011;-76
2024/01/06 00:49:53;;;;;;;13.43;7.95;;;6.00;90.50;;;;;;9175258;19;20019;-75
2024/01/06 00:53:02;;;;;;;14.85;7.10;;;5.90;90.50;;;;;;9177591;19;20022;-75
2024/01/06 00:56:10;;;;;;;11.02;7.55;;;5.90;90.50;;;;;;9178634;19;20023;-75
2024/01/06 00:59:17;;;;;;;13.13;7.82;;;5.90;90.50;;;;;;9179601;19;20342;-74
2024/01/06 01:02:23;;;;;;;13.55;7.72;;;5.90;90.50;;;;;;9178268;19;20018;-75
2024/01/06 01:05:32;;;;;;;13.05;7.45;;;5.90;90.50;;;;;;9178913;19;20025;-75
2024/01/06 01:08:39;;;;;;;15.00;8.65;;;5.80;90.50;;;;;;9179927;19;20992;-77
2024/01/06 01:11:50;;;;;;;15.98;9.75;;;5.80;90.50;;;;;;9176461;19;20010;-77
2024/01/06 01:14:56;;;;;;;16.25;10.10;;;5.80;90.50;;;;;;9172629;19;20022;-77
2024/01/06 01:18:03;;;;;;;18.33;10.55;;;5.70;90.50;;;;;;9174748;19;20459;-72
2024/01/06 01:21:09;;;;;;;21.42;10.20;;;5.70;90.80;;;;;;9177070;19;20089;-73
2024/01/06 01:24:16;;;;;;;17.63;9.73;;;5.70;90.60;;;;;;9174115;19;20083;-73
2024/01/06 01:27:25;;;;;;;21.35;11.20;;;5.70;90.60;;;;;;9176965;19;20018;-72
2024/01/06 01:30:33;;;;;;;23.77;10.93;;;5.70;90.60;;;;;;9178542;19;21088;-72
2024/01/06 01:33:39;;;;;;;18.50;10.38;;;5.70;90.50;;;;;;9176914;19;20575;-72
2024/01/06 01:36:47;;;;;;;19.35;10.20;;;5.60;90.80;;;;;;9174725;19;20019;-73
2024/01/06 01:39:52;;;;;;;16.30;9.90;;;5.60;90.50;;;;;;9174599;19;20033;-73
2024/01/06 01:43:03;;;;;;;16.13;9.30;;;5.60;90.60;;;;;;9177423;19;20331;-72
2024/01/06 01:46:09;;;;;;;20.65;10.27;;;5.50;90.50;;;;;;9176129;19;20353;-72
2024/01/06 01:49:16;;;;;;;14.77;8.75;;;5.50;90.50;;;;;;9175965;19;20010;-74
2024/01/06 01:52:25;;;;;;;13.55;7.82;;;5.50;90.80;;;;;;9173560;19;20030;-72
2024/01/06 01:55:33;;;;;;;12.00;7.35;;;5.50;90.50;;;;;;9172715;19;20010;-72
2024/01/06 01:58:41;;;;;;;17.73;7.80;;;5.40;90.50;;;;;;9175757;19;20016;-71
2024/01/06 02:01:50;;;;;;;14.75;7.10;;;5.40;90.50;;;;;;9176867;19;20026;-72
2024/01/06 02:04:55;;;;;;;15.27;7.25;;;5.40;90.50;;;;;;9172658;19;20018;-72
2024/01/06 02:08:03;;;;;;;11.20;6.47;;;5.30;90.50;;;;;;9173032;19;20021;-72
2024/01/06 02:11:09;;;;;;;15.32;7.40;;;5.30;90.50;;;;;;9175965;19;20019;-73
2024/01/06 02:14:19;;;;;;;13.20;7.03;;;5.30;90.50;;;;;;9173019;19;20041;-73
2024/01/06 02:17:25;;;;;;;18.23;8.93;;;5.30;90.50;;;;;;9174182;19;20026;-73
2024/01/06 02:20:34;;;;;;;13.38;7.75;;;5.30;90.50;;;;;;9174799;19;20022;-74
2024/01/06 02:23:42;;;;;;;14.60;8.63;;;5.30;90.60;;;;;;9176865;19;20081;-73
2024/01/06 02:26:59;;;;;;;14.73;8.48;;;5.30;90.50;;;;;;9175665;19;20022;-73
2024/01/06 02:30:05;;;;;;;18.13;10.55;;;5.20;90.50;;;;;;9175921;19;20074;-73
2024/01/06 02:33:13;;;;;;;18.75;10.50;;;5.20;90.50;;;;;;9173689;19;20015;-74
2024/01/06 02:36:19;;;;;;;16.23;10.07;;;5.20;90.50;;;;;;9175356;19;20021;-74
2024/01/06 02:39:30;;;;;;;17.35;10.15;;;5.20;90.50;;;;;;9175263;19;20081;-73
2024/01/06 02:42:36;;;;;;;16.13;10.18;;;5.20;90.50;;;;;;9173672;19;20014;-73
2024/01/06 02:45:44;;;;;;;16.80;10.82;;;5.20;90.50;;;;;;9174603;19;20540;-72
2024/01/06 02:48:49;;;;;;;22.27;10.65;;;5.10;90.50;;;;;;9173216;19;20018;-72
2024/01/06 02:51:57;;;;;;;16.83;9.27;;;5.10;90.50;;;;;;9174772;19;20019;-73
2024/01/06 02:55:06;;;;;;;19.60;10.90;;;5.10;90.50;;;;;;9176402;19;20023;-72
2024/01/06 02:58:14;;;;;;;15.50;9.35;;;5.10;90.50;;;;;;9170295;19;20011;-72
2024/01/06 03:01:20;;;;;;;17.15;10.25;;;5.10;90.50;;;;;;9173405;19;20025;-73
2024/01/06 03:04:28;;;;;;;15.48;9.55;;;5.10;90.50;;;;;;9171571;19;20010;-72
2024/01/06 03:07:34;;;;;;;17.15;10.15;;;5.10;90.50;;;;;;9180675;19;20449;-73
2024/01/06 03:10:47;;;;;;;16.55;9.80;;;5.00;90.50;;;;;;9182186;19;20019;-72
2024/01/06 03:13:52;;;;;;;14.63;9.38;;;5.00;90.70;;;;;;9178703;19;20033;-73
2024/01/06 03:17:02;;;;;;;22.60;11.07;;;5.00;90.50;;;;;;9184354;19;20018;-73
2024/01/06 03:20:09;;;;;;;18.45;11.00;;;5.00;90.50;;;;;;9179643;19;20026;-74
2024/01/06 03:23:17;;;;;;;19.27;11.02;;;4.90;90.50;;;;;;9183425;19;20007;-72
2024/01/06 03:26:25;;;;;;;22.20;11.98;;;5.00;90.50;;;;;;9183500;19;20056;-72
2024/01/06 03:29:33;;;;;;;20.55;10.63;;;4.90;90.50;;;;;;9184066;19;20014;-73
2024/01/06 03:32:38;;;;;;;21.92;12.25;;;4.90;90.50;;;;;;9181909;19;20029;-73
2024/01/06 03:35:46;;;;;;;23.02;12.52;;;4.90;90.50;;;;;;9183127;19;20006;-72
2024/01/06 03:38:51;;;;;;;21.92;11.63;;;4.90;90.50;;;;;;9180636;19;20034;-73
2024/01/06 03:42:03;;;;;;;19.30;11.32;;;4.90;90.50;;;;;;9182102;19;20030;-73
2024/01/06 03:45:10;;;;;;;22.08;11.55;;;4.90;90.50;;;;;;9182403;19;20362;-73
2024/01/06 03:48:17;;;;;;;21.30;11.50;;;4.90;90.50;;;;;;9183462;19;20010;-72
2024/01/06 03:51:23;;;;;;;19.05;11.55;;;4.90;90.50;;;;;;9180918;19;20013;-72
2024/01/06 03:54:31;;;;;;;18.30;11.27;;;4.90;90.50;;;;;;9180219;19;20014;-72
2024/01/06 03:57:42;;;;;;;17.20;10.52;;;4.90;90.50;;;;;;9181746;19;20015;-71
2024/01/06 04:00:49;;;;;;;18.13;10.95;;;4.90;90.50;;;;;;9182511;19;20557;-72
2024/01/06 04:03:55;;;;;;;20.10;11.27;;;4.80;90.40;;;;;;9180698;19;20082;-72
2024/01/06 04:07:04;;;;;;;21.08;11.07;;;4.80;90.40;;;;;;9180848;19;20015;-74
2024/01/06 04:10:10;;;;;;;20.05;11.77;;;4.90;90.50;;;;;;9182100;19;20034;-71
2024/01/06 04:13:20;;;;;;;24.75;12.55;;;4.80;90.50;;;;;;9178324;19;20018;-73
2024/01/06 04:16:26;;;;;;;21.67;12.65;;;4.80;90.50;;;;;;9181082;19;20014;-72
2024/01/06 04:19:33;;;;;;;24.90;12.88;;;4.80;90.40;;;;;;9179951;19;20023;-72
2024/01/06 04:22:39;;;;;;;22.98;12.48;;;4.80;90.40;;;;;;9182141;19;20021;-72
2024/01/06 04:25:46;;;;;;;23.42;12.77;;;4.80;90.50;;;;;;9182360;19;20500;-72
2024/01/06 04:28:57;;;;;;;22.63;12.35;;;4.70;90.40;;;;;;9181736;19;20476;-72
2024/01/06 04:32:05;;;;;;;22.25;12.60;;;4.70;90.40;;;;;;9180838;19;20022;-73
2024/01/06 04:35:10;;;;;;;25.73;14.15;;;4.70;90.40;;;;;;9180760;19;20696;-72
2024/01/06 04:38:18;;;;;;;22.80;13.40;;;4.70;90.40;;;;;;9180343;19;20022;-73
2024/01/06 04:41:24;;;;;;;25.55;13.88;;;4.70;90.40;;;;;;9181860;19;20425;-72
2024/01/06 04:44:34;;;;;;;25.90;13.65;;;4.70;90.40;;;;;;9176478;19;20015;-72
2024/01/06 04:47:40;;;;;;;22.08;12.70;;;4.70;90.40;;;;;;9181618;19;20017;-72
2024/01/06 04:50:47;;;;;;;27.20;15.32;;;4.70;90.70;;;;;;9178659;19;20734;-73
2024/01/06 04:53:53;;;;;;;23.38;13.88;;;4.70;90.40;;;;;;9178917;19;20014;-72
2024/01/06 04:57:01;;;;;;;26.20;14.00;;;4.70;90.40;;;;;;9177184;19;20356;-72
2024/01/06 05:00:10;;;;;;;23.13;12.23;;;4.60;90.40;;;;;;9178039;19;20025;-73
2024/01/06 05:03:18;;;;;;;23.92;12.45;;;4.60;90.40;;;;;;9177179;19;20361;-73
2024/01/06 05:06:24;;;;;;;22.38;12.23;;;4.60;90.50;;;;;;9176272;19;20390;-72
2024/01/06 05:09:32;;;;;;;25.77;12.60;;;4.60;90.50;;;;;;9179189;19;20021;-73
2024/01/06 05:12:38;;;;;;;26.55;13.00;;;4.50;90.40;;;;;;9172705;19;20052;-73
2024/01/06 05:15:48;;;;;;;27.25;14.13;;;4.50;90.40;;;;;;9177174;19;20028;-72
2024/01/06 05:18:54;;;;;;;26.67;13.32;;;4.60;90.40;;;;;;9177298;19;20025;-72
2024/01/06 05:22:02;;;;;;;29.15;13.05;;;4.60;90.40;;;;;;9176798;19;20022;-71
2024/01/06 05:25:09;;;;;;;27.17;13.13;;;4.50;90.40;;;;;;9177445;19;20018;-72
2024/01/06 05:28:16;;;;;;;30.92;12.77;;;4.50;90.40;;;;;;9178406;19;20358;-71
2024/01/06 05:31:25;;;;;;;23.05;12.40;;;4.50;90.40;;;;;;9176275;19;20026;-72
2024/01/06 05:34:35;;;;;;;24.23;11.70;;;4.50;90.40;;;;;;9175346;19;20488;-71
2024/01/06 05:37:41;;;;;;;25.10;12.50;;;4.50;90.40;;;;;;9176690;19;20021;-74
2024/01/06 05:40:48;;;;;;;28.25;13.02;;;4.40;90.30;;;;;;9176643;19;20017;-73
2024/01/06 05:43:54;;;;;;;26.13;12.68;;;4.40;90.30;;;;;;9178413;19;20047;-73
2024/01/06 05:47:04;;;;;;;24.00;12.65;;;4.30;90.30;;;;;;9175672;19;20471;-73
2024/01/06 05:50:11;;;;;;;25.20;12.55;;;4.30;90.30;;;;;;9176417;19;20034;-73
2024/01/06 05:53:19;;;;;;;30.52;13.73;;;4.30;90.30;;;;;;9175778;19;20029;-73
2024/01/06 05:56:29;;;;;;;29.10;12.45;;;4.20;90.30;;;;;;9174336;19;20398;-73
2024/01/06 05:59:37;;;;;;;29.27;14.32;;;4.20;90.30;;;;;;9174967;19;20409;-76
2024/01/06 06:02:45;;;;;;;30.52;13.57;;;4.20;90.40;;;;;;9177828;19;20489;-77
2024/01/06 06:05:52;;;;;;;28.55;13.85;;;4.20;90.40;;;;;;9176393;19;20034;-77
2024/01/06 06:09:00;;;;;;;27.10;13.85;;;4.20;90.60;;;;;;9176490;19;20467;-77
2024/01/06 06:12:08;;;;;;;27.05;13.57;;;4.10;90.30;;;;;;9173188;19;20022;-76
2024/01/06 06:15:14;;;;;;;27.90;13.98;;;4.20;90.40;;;;;;9173341;19;20014;-79
2024/01/06 06:18:27;;;;;;;30.25;14.45;;;4.10;90.30;;;;;;9175491;19;20018;-76
2024/01/06 06:21:34;;;;;;;27.83;13.55;;;4.10;90.30;;;;;;9171613;19;20016;-76
2024/01/06 06:24:41;;;;;;;29.55;14.40;;;4.10;90.40;;;;;;9175750;19;20022;-77
2024/01/06 06:27:50;;;;;;;27.92;14.88;;;4.10;90.30;;;;;;9174175;19;20086;-77
2024/01/06 06:30:57;;;;;;;29.08;13.07;;;4.10;90.60;;;;;;9174490;19;20014;-76
2024/01/06 06:34:06;;;;;;;28.75;14.32;;;4.10;90.40;;;;;;9175197;19;20077;-77
2024/01/06 06:37:15;;;;;;;30.38;14.50;;;4.10;90.40;;;;;;9174191;19;20014;-77
2024/01/06 06:40:21;;;;;;;31.42;15.20;;;4.10;90.40;;;;;;9171483;19;20092;-77
2024/01/06 06:43:28;;;;;;;30.00;13.85;;;4.00;90.40;;;;;;9174858;19;20010;-76
2024/01/06 06:46:34;;;;;;;33.42;14.00;;;4.00;90.40;;;;;;9175556;19;20030;-75
2024/01/06 06:49:44;;;;;;;27.77;14.13;;;4.00;90.40;;;;;;9175039;19;20019;-77
2024/01/06 06:52:51;;;;;;;31.88;15.05;;;4.00;90.40;;;;;;9171839;19;20006;-76
2024/01/06 06:55:59;;;;;;;29.42;13.82;;;3.90;90.40;;;;;;9171561;19;20806;-77
2024/01/06 06:59:05;;;;;;;28.08;13.63;;;3.90;90.40;;;;;;9175374;19;20131;-77
2024/01/06 07:02:12;;;;;;;27.75;14.15;;;3.90;90.40;;;;;;9170025;19;20006;-76
2024/01/06 07:05:20;;;;;;;26.92;13.35;;;3.90;90.40;;;;;;9176067;19;20014;-77
2024/01/06 07:08:28;;;;;;;29.25;14.00;;;3.90;90.40;;;;;;9171626;19;20014;-71
2024/01/06 07:11:33;;;;;;;27.13;13.63;;;3.90;90.40;;;;;;9172860;19;20072;-71
2024/01/06 07:14:41;;;;;;;23.45;12.55;;;3.90;90.60;;;;;;9169745;19;20022;-73
2024/01/06 07:17:48;;;;;;;27.50;12.38;;;3.80;90.30;;;;;;9174661;19;20022;-71
2024/01/06 07:20:59;;;;;;;23.10;11.50;;;3.80;90.30;;;;;;9172296;19;20022;-71
2024/01/06 07:24:04;;;;;;;23.30;11.90;;;3.80;90.30;;;;;;9171547;19;20034;-71
2024/01/06 07:27:12;;;;;;;25.63;11.10;;;3.80;90.40;;;;;;9170460;19;20674;-72
2024/01/06 07:30:17;;;;;;;17.13;10.02;;;3.70;90.40;;;;;;9174314;19;20445;-71
2024/01/06 07:33:25;;;;;;;17.92;10.70;;;3.70;90.30;;;;;;9172979;19;20030;-72
2024/01/06 07:36:34;;;;;;;22.40;11.38;;;3.70;90.30;;;;;;9174063;19;20010;-71
2024/01/06 07:39:41;;;;;;;21.80;10.75;;;3.70;90.30;;;;;;9171720;19;20010;-71
2024/01/06 07:42:47;;;;;;;22.17;10.93;;;3.70;90.40;;;;;;9174365;19;20023;-73
2024/01/06 07:45:55;;;;;;;30.33;12.30;;;3.60;90.40;;;;;;9174092;19;20761;-73
2024/01/06 07:49:01;;;;;;;22.25;12.38;;;3.60;90.30;;;;;;9175131;19;20074;-72
2024/01/06 07:52:11;;;;;;;21.52;11.15;;;3.60;90.40;;;;;;9175653;19;20022;-71
2024/01/06 07:55:17;;;;;;;23.17;11.60;;;3.60;90.30;;;;;;9183615;19;20442;-75
2024/01/06 07:58:25;;;;;;;18.70;10.63;;;3.60;90.30;;;;;;9178815;19;20018;-71
2024/01/06 08:01:31;;;;;;;20.00;9.90;;;3.60;90.40;;;;;;9179544;19;20379;-73
2024/01/06 08:04:39;;;;;;;16.35;9.18;;;3.50;90.30;;;;;;9177637;19;20014;-73
2024/01/06 08:07:47;;;;;;;20.10;9.85;;;3.50;90.30;;;;;;9179904;19;20362;-72
2024/01/06 08:10:55;;;;;;;19.02;9.15;;;3.50;90.30;;;;;;9183205;19;20019;-72
2024/01/06 08:14:00;;;;;;;20.63;10.57;;;3.50;90.30;;;;;;9177268;19;20010;-73
2024/01/06 08:17:08;;;;;;;20.70;9.90;;;3.50;90.60;;;;;;9181034;19;20033;-73
2024/01/06 08:20:13;;;;;;;23.60;9.60;;;3.50;90.30;;;;;;9178326;19;20021;-73
2024/01/06 08:23:24;;;;;;;19.73;10.50;;;3.40;90.30;;;;;;9181850;19;20022;-73
2024/01/06 08:26:29;;;;;;;19.98;10.40;;;3.40;90.30;;;;;;9180354;19;20018;-72
2024/01/06 08:29:37;;;;;;;25.40;10.98;;;3.40;90.30;;;;;;9181927;19;20014;-74
2024/01/06 08:32:42;;;;;;;21.27;9.52;;;3.40;90.30;;;;;;9181137;19;20030;-73
2024/01/06 08:35:50;;;;;;;20.88;11.13;;;3.40;90.30;;;;;;9178309;19;20021;-73
2024/01/06 08:38:58;;;;;;;25.63;11.60;;;3.40;90.30;;;;;;9181470;19;20014;-72
2024/01/06 08:42:06;;;;;;;21.30;10.48;;;3.40;90.40;;;;;;9178726;19;20018;-73
2024/01/06 08:45:12;;;;;;;23.88;11.13;;;3.40;90.40;;;;;;9181415;19;20580;-73
2024/01/06 08:48:23;;;;;;;21.40;11.02;;;3.40;90.40;;;;;;9177912;19;20018;-72
2024/01/06 08:51:30;;;;;;;24.95;10.07;;;3.40;90.40;;;;;;9180817;19;20018;-73
2024/01/06 08:54:41;;;;;;;25.88;10.95;;;3.40;90.40;;;;;;9180868;19;20018;-72
2024/01/06 08:57:46;;;;;;;18.42;10.88;;;3.40;90.40;;;;;;9180788;19;20011;-72
2024/01/06 09:00:54;;;;;;;22.08;10.30;;;3.40;90.40;;;;;;9178301;19;20007;-73
2024/01/06 09:04:00;;;;;;;23.30;10.75;;;3.40;90.40;;;;;;9179212;19;20011;-72
2024/01/06 09:07:08;;;;;;;22.65;10.43;;;3.40;90.30;;;;;;9176819;19;20026;-73
2024/01/06 09:10:16;;;;;;;19.10;10.85;;;3.30;90.30;;;;;;9179512;19;20014;-73
2024/01/06 09:13:24;;;;;;;22.52;11.13;;;3.30;90.30;;;;;;9174844;19;20019;-72
2024/01/06 09:16:29;;;;;;;24.00;11.23;;;3.30;90.30;;;;;;9178314;19;20027;-72
2024/01/06 09:19:37;;;;;;;22.45;11.52;;;3.30;90.40;;;;;;9177657;19;20022;-74
2024/01/06 09:22:43;;;;;;;25.92;11.57;;;3.30;90.40;;;;;;9177472;19;20006;-72
2024/01/06 09:25:53;;;;;;;22.73;10.98;;;3.30;90.40;;;;;;9178330;19;20063;-73
2024/01/06 09:28:59;;;;;;;25.17;11.23;;;3.20;90.40;;;;;;9178117;19;20011;-74
2024/01/06 09:32:07;;;;;;;25.08;12.00;;;3.20;90.40;;;;;;9178026;19;20018;-75
2024/01/06 09:35:13;;;;;;;23.27;11.43;;;3.20;90.60;;;;;;9179793;19;20476;-74
2024/01/06 09:38:21;;;;;;;22.35;11.07;;;3.20;90.40;;;;;;9177741;19;20007;-74
2024/01/06 09:41:29;;;;;;;20.85;11.35;;;3.20;90.40;;;;;;9178954;19;20033;-74
2024/01/06 09:44:37;;;;;;;18.13;9.75;;;3.20;90.40;;;;;;9179764;19;20452;-74
2024/01/06 09:47:43;;;;;;;19.73;10.80;;;3.30;90.40;;;;;;9179986;19;20044;-75
2024/01/06 09:50:56;;;;;;;17.25;10.40;;;3.30;90.40;;;;;;9177584;19;20018;-75
2024/01/06 09:54:07;;;;;;;19.38;10.98;;;3.30;90.40;;;;;;9179169;19;20014;-74
2024/01/06 09:57:17;;;;;;;17.45;10.23;;;3.30;90.50;;;;;;9178917;19;20021;-75
2024/01/06 10:00:24;;;;;;;24.33;13.43;;;3.30;90.40;;;;;;9177687;19;20006;-74
2024/01/06 10:03:34;;;;;;;19.85;11.55;;;3.30;90.40;;;;;;9176356;19;20022;-75
2024/01/06 10:06:40;;;;;;;21.73;12.40;;;3.30;90.40;;;;;;9175829;19;20018;-74
2024/01/06 10:09:48;;;;;;;20.35;11.35;;;3.40;90.40;;;;;;9175895;19;20015;-74
2024/01/06 10:12:57;;;;;;;17.38;10.93;;;3.40;90.40;;;;;;9170565;19;20022;-74
2024/01/06 10:16:05;;;;;;;19.23;11.23;;;3.40;90.40;;;;;;9175054;19;20741;-75
2024/01/06 10:19:11;;;;;;;23.48;13.55;;;3.40;90.40;;;;;;9178808;19;20022;-74
2024/01/06 10:22:20;;;;;;;23.83;13.30;;;3.40;90.40;;;;;;9173766;19;20026;-74
2024/01/06 10:25:26;;;;;;;24.05;13.70;;;3.40;90.40;;;;;;9177736;19;20007;-74
2024/01/06 10:28:36;;;;;;;24.25;13.85;;;3.40;90.40;;;;;;9178021;19;20022;-74
2024/01/06 10:31:42;;;;;;;21.38;12.13;;;3.50;90.40;;;;;;9176331;19;20082;-75
2024/01/06 10:34:50;;;;;;;21.60;12.10;;;3.40;90.40;;;;;;9175398;19;20014;-74
2024/01/06 10:37:58;;;;;;;24.08;11.80;;;3.50;90.40;;;;;;9176118;19;20034;-73
2024/01/06 10:41:09;;;;;;;19.77;11.40;;;3.50;90.40;;;;;;9173782;19;20015;-72
2024/01/06 10:44:17;;;;;;;21.15;11.15;;;3.50;90.40;;;;;;9176128;19;20024;-73
2024/01/06 10:47:26;;;;;;;19.13;11.02;;;3.50;90.40;;;;;;9176365;19;20019;-72
2024/01/06 10:50:34;;;;;;;16.25;10.20;;;3.50;90.40;;;;;;9175779;19;20018;-72
2024/01/06 10:53:43;;;;;;;17.15;10.00;;;3.50;90.40;;;;;;9175235;19;20019;-72
2024/01/06 10:56:49;;;;;;;14.63;9.88;;;3.60;90.40;;;;;;9175399;19;20011;-72
2024/01/06 11:00:01;;;;;;;17.80;10.73;;;3.60;90.40;;;;;;9175288;19;20010;-72
2024/01/06 11:03:08;;;;;;;18.25;9.98;;;3.60;90.40;;;;;;9173728;19;20026;-72
2024/01/06 11:06:17;;;;;;;14.77;9.63;;;3.60;90.40;;;;;;9174219;19;20022;-73
2024/01/06 11:09:27;;;;;;;15.00;9.32;;;3.60;90.40;;;;;;9171954;19;20024;-72
2024/01/06 11:12:34;;;;;;;14.23;9.48;;;3.60;90.40;;;;;;9169151;19;20026;-72
2024/01/06 11:15:47;;;;;;;15.80;9.55;;;3.60;90.40;;;;;;9174480;19;20024;-72
2024/01/06 11:18:55;;;;;;;17.30;9.63;;;3.70;90.40;;;;;;9175317;19;20356;-72
2024/01/06 11:22:26;;;;;;;16.85;10.60;;;3.70;90.40;;;;;;9172295;19;20526;-71
2024/01/06 11:25:34;;;;;;;30.10;16.73;;;3.70;90.30;;;;;;9175058;19;20022;-72
2024/01/06 11:28:47;;;;;;;21.88;13.75;;;3.70;90.30;;;;;;9184642;19;20018;-72
2024/01/06 11:32:22;;;;;;;19.27;11.00;;;3.70;90.30;;;;;;9185074;19;20015;-72
2024/01/06 11:35:29;;;;;;;17.70;10.40;;;3.70;90.30;;;;;;9183496;19;20021;-72
2024/01/06 11:38:40;;;;;;;20.05;11.23;;;3.70;90.30;;;;;;9181908;19;20022;-72
2024/01/06 11:41:51;;;;;;;17.42;10.68;;;3.70;90.60;;;;;;9183732;19;20069;-72
2024/01/06 11:45:05;;;;;;;17.42;11.57;;;3.70;90.30;;;;;;9181294;19;20021;-72
2024/01/06 11:48:14;;;;;;;18.00;10.80;;;3.70;90.30;;;;;;9183868;19;20475;-72
2024/01/06 11:51:22;;;;;;;19.13;12.30;;;3.70;90.30;;;;;;9181995;19;20040;-72
2024/01/06 11:54:27;;;;;;;20.38;12.20;;;3.70;90.30;;;;;;9182491;19;20852;-72
2024/01/06 11:57:35;;;;;;;22.50;13.05;;;3.70;90.30;;;;;;9181428;19;20014;-73
2024/01/06 12:00:41;;;;;;;18.90;11.70;;;3.70;90.30;;;;;;9181025;19;20014;-72
2024/01/06 12:03:59;;;;;;;17.52;11.43;;;3.70;90.30;;;;;;9179209;19;20013;-72
2024/01/06 12:07:14;;;;;;;21.48;12.35;;;3.70;90.30;;;;;;9178023;19;20383;-73
2024/01/06 12:10:23;;;;;;;21.60;13.38;;;3.70;90.30;;;;;;9181221;19;20014;-72
2024/01/06 12:13:28;;;;;;;17.58;11.88;;;3.70;90.30;;;;;;9176470;19;20035;-74
2024/01/06 12:16:36;;;;;;;19.95;11.25;;;3.70;90.30;;;;;;9182739;19;20026;-72
2024/01/06 12:19:46;;;;;;;21.25;13.50;;;3.70;90.30;;;;;;9182342;19;20029;-71
2024/01/06 12:22:54;;;;;;;20.45;12.57;;;3.70;90.20;;;;;;9178579;19;20014;-71
2024/01/06 12:26:03;;;;;;;23.42;12.88;;;3.70;90.20;;;;;;9182423;19;20476;-72
2024/01/06 12:29:11;;;;;;;22.80;13.68;;;3.70;90.20;;;;;;9180137;19;20026;-72
2024/01/06 12:32:17;;;;;;;24.77;13.77;;;3.70;90.50;;;;;;9178434;19;20503;-72
2024/01/06 12:35:27;;;;;;;24.10;13.15;;;3.70;90.20;;;;;;9179322;19;20014;-72
2024/01/06 12:38:32;;;;;;;22.75;13.93;;;3.70;90.20;;;;;;9179519;19;20065;-72
2024/01/06 12:41:41;;;;;;;31.67;15.02;;;3.70;90.20;;;;;;9180107;19;20019;-71
2024/01/06 12:44:46;;;;;;;21.73;13.85;;;3.70;90.20;;;;;;9177745;19;20023;-72
2024/01/06 12:47:54;;;;;;;24.15;14.82;;;3.70;90.20;;;;;;9180578;19;20025;-72
2024/01/06 12:51:02;;;;;;;27.08;15.25;;;3.70;90.20;;;;;;9177802;19;20025;-72
2024/01/06 12:54:10;;;;;;;24.88;13.48;;;3.70;90.20;;;;;;9179014;19;20014;-72
2024/01/06 12:57:16;;;;;;;26.27;14.35;;;3.70;90.20;;;;;;9180355;19;20029;-72
2024/01/06 13:00:23;;;;;;;22.65;13.20;;;3.70;90.20;;;;;;9179789;19;20014;-71
2024/01/06 13:03:29;;;;;;;21.95;13.55;;;3.70;90.20;;;;;;9177295;19;20021;-72
2024/01/06 13:06:40;;;;;;;25.20;13.68;;;3.70;90.20;;;;;;9176897;19;20377;-72
2024/01/06 13:09:45;;;;;;;23.35;14.75;;;3.70;90.20;;;;;;9180930;19;20078;-72
2024/01/06 13:12:53;;;;;;;25.15;14.75;;;3.70;90.20;;;;;;9174575;19;20018;-72
2024/01/06 13:15:59;;;;;;;23.42;14.32;;;3.70;90.20;;;;;;9179067;19;20404;-72
2024/01/06 13:19:07;;;;;;;23.17;13.15;;;3.70;90.20;;;;;;9179591;19;20025;-71
2024/01/06 13:22:18;;;;;;;24.13;14.23;;;3.70;90.20;;;;;;9178585;19;20078;-72
2024/01/06 13:25:26;;;;;;;25.60;14.48;;;3.70;90.20;;;;;;9176746;19;20022;-73
2024/01/06 13:28:32;;;;;;;23.17;14.48;;;3.70;90.20;;;;;;9177067;19;20010;-72
2024/01/06 13:31:39;;;;;;;24.98;14.32;;;3.70;90.20;;;;;;9179331;19;20014;-71
2024/01/06 13:34:45;;;;;;;26.02;14.43;;;3.70;90.20;;;;;;9178146;19;20048;-71
2024/01/06 13:37:56;;;;;;;27.95;15.57;;;3.70;90.20;;;;;;9175441;19;20506;-71
2024/01/06 13:41:03;;;;;;;27.63;15.73;;;3.70;90.20;;;;;;9177712;19;20022;-72
2024/01/06 13:44:10;;;;;;;28.77;16.65;;;3.70;90.20;;;;;;9177320;19;20018;-72
2024/01/06 13:47:16;;;;;;;29.83;17.58;;;3.70;90.20;;;;;;9178043;19;20025;-72
2024/01/06 13:50:24;;;;;;;27.98;15.88;;;3.70;90.20;;;;;;9176811;19;20033;-72
2024/01/06 13:53:33;;;;;;;25.63;15.10;;;3.70;90.20;;;;;;9176914;19;20020;-71
2024/01/06 13:56:40;;;;;;;27.42;14.90;;;3.70;90.20;;;;;;9176797;19;20018;-73
2024/01/06 13:59:48;;;;;;;26.27;15.15;;;3.70;90.20;;;;;;9176234;19;20018;-71
2024/01/06 14:02:56;;;;;;;33.60;15.88;;;3.60;90.10;;;;;;9177287;19;20018;-71
2024/01/06 14:06:02;;;;;;;25.65;14.68;;;3.60;90.20;;;;;;9177222;19;20014;-71
2024/01/06 14:09:14;;;;;;;27.50;14.90;;;3.60;90.20;;;;;;9176604;19;20019;-75
2024/01/06 14:12:19;;;;;;;29.75;15.48;;;3.60;90.10;;;;;;9173322;19;20027;-74
2024/01/06 14:15:29;;;;;;;27.83;14.43;;;3.60;90.10;;;;;;9176088;19;20010;-73
2024/01/06 14:18:35;;;;;;;26.10;14.27;;;3.60;90.10;;;;;;9176454;19;20022;-74
2024/01/06 14:21:42;;;;;;;24.48;13.98;;;3.60;90.10;;;;;;9176458;19;20017;-74
2024/01/06 14:24:51;;;;;;;25.67;14.57;;;3.60;90.10;;;;;;9175984;19;20022;-74
2024/01/06 14:28:00;;;;;;;24.55;14.30;;;3.50;90.10;;;;;;9176288;19;20020;-74
2024/01/06 14:31:06;;;;;;;24.85;14.52;;;3.50;90.10;;;;;;9176516;19;20051;-73
2024/01/06 14:34:16;;;;;;;24.02;13.52;;;3.50;90.10;;;;;;9176714;19;20018;-75
2024/01/06 14:37:23;;;;;;;21.10;13.63;;;3.50;90.10;;;;;;9174955;19;20010;-74
2024/01/06 14:40:34;;;;;;;22.73;13.10;;;3.50;90.10;;;;;;9176177;19;20022;-73
2024/01/06 14:43:40;;;;;;;21.02;13.52;;;3.50;90.10;;;;;;9176047;19;20027;-74
2024/01/06 14:46:48;;;;;;;20.98;12.25;;;3.50;90.10;;;;;;9174389;19;20475;-74
2024/01/06 14:49:54;;;;;;;21.63;12.52;;;3.50;90.10;;;;;;9176098;19;20350;-74
2024/01/06 14:53:02;;;;;;;27.30;14.32;;;3.50;90.10;;;;;;9174905;19;20011;-74
2024/01/06 14:56:11;;;;;;;26.63;15.25;;;3.50;90.10;;;;;;9175738;19;20105;-74
2024/01/06 14:59:19;;;;;;;26.40;15.75;;;3.50;90.10;;;;;;9174353;19;20018;-74
2024/01/06 15:02:25;;;;;;;36.83;18.08;;;3.50;90.10;;;;;;9174787;19;20019;-74
2024/01/06 15:05:34;;;;;;;30.45;16.58;;;3.50;90.10;;;;;;9174926;19;20030;-74
2024/01/06 15:08:39;;;;;;;30.40;16.85;;;3.50;90.10;;;;;;9174997;19;20010;-74
2024/01/06 15:11:50;;;;;;;25.00;13.88;;;3.40;90.10;;;;;;9173939;19;20015;-74
2024/01/06 15:14:56;;;;;;;22.75;13.80;;;3.50;90.10;;;;;;9171538;19;20018;-73
2024/01/06 15:18:03;;;;;;;26.77;14.88;;;3.40;90.10;;;;;;9174998;19;20500;-73
2024/01/06 15:21:09;;;;;;;26.27;14.15;;;3.40;90.10;;;;;;9173247;19;20353;-73
2024/01/06 15:24:17;;;;;;;30.50;14.63;;;3.40;90.10;;;;;;9174956;19;20022;-73
2024/01/06 15:27:26;;;;;;;25.63;13.52;;;3.40;90.10;;;;;;9174599;19;20030;-74
2024/01/06 15:30:33;;;;;;;26.40;14.75;;;3.40;90.10;;;;;;9174610;19;20476;-74
2024/01/06 15:33:41;;;;;;;30.42;14.43;;;3.40;90.10;;;;;;9172551;19;20049;-74
2024/01/06 15:36:53;;;;;;;31.55;14.23;;;3.40;90.10;;;;;;9173655;19;20019;-73
2024/01/06 15:39:59;;;;;;;26.15;14.85;;;3.40;90.40;;;;;;9172123;19;20017;-74
2024/01/06 15:43:10;;;;;;;28.58;14.60;;;3.40;90.10;;;;;;9168580;19;20034;-73
2024/01/06 15:46:17;;;;;;;26.80;15.73;;;3.40;90.30;;;;;;9169282;19;20595;-72
2024/01/06 15:49:26;;;;;;;31.48;15.35;;;3.40;90.10;;;;;;9171695;19;20022;-72
2024/01/06 15:52:33;;;;;;;30.52;15.45;;;3.30;90.10;;;;;;9173090;19;20015;-72
2024/01/06 15:55:41;;;;;;;29.55;16.00;;;3.30;90.10;;;;;;9173764;19;20023;-72
2024/01/06 15:58:49;;;;;;;28.20;15.75;;;3.30;90.10;;;;;;9172613;19;20709;-72
2024/01/06 16:01:57;;;;;;;31.80;16.67;;;3.30;90.10;;;;;;9173600;19;20488;-74
2024/01/06 16:05:04;;;;;;;28.83;16.85;;;3.30;90.10;;;;;;9172033;19;20018;-72
2024/01/06 16:08:12;;;;;;;27.73;15.13;;;3.30;90.10;;;;;;9168670;19;20029;-71